createdAt,value
2023-03-22T00:00:16.460Z,91.57
2023-03-22T00:02:44.432Z,91.81
2023-03-22T00:05:11.217Z,91.12
2023-03-22T00:07:38.243Z,90.58
2023-03-22T00:10:06.116Z,90.53
2023-03-22T00:12:32.915Z,91.43
2023-03-22T00:14:59.721Z,91.20
2023-03-22T00:17:26.604Z,91.08
2023-03-22T00:19:54.758Z,91.84
2023-03-22T00:22:21.576Z,91.17
2023-03-22T00:24:48.338Z,90.72
2023-03-22T00:27:15.120Z,88.89
2023-03-22T00:29:42.039Z,87.62
2023-03-22T00:32:08.837Z,89.96
2023-03-22T00:34:35.598Z,90.53
2023-03-22T00:37:03.936Z,90.07
2023-03-22T00:39:30.740Z,90.07
2023-03-22T00:41:57.522Z,91.38
2023-03-22T00:44:24.454Z,92.06
2023-03-22T00:46:51.268Z,92.82
2023-03-22T00:49:18.234Z,90.47
2023-03-22T00:51:45.016Z,89.29
2023-03-22T00:54:13.242Z,88.01
2023-03-22T00:56:40.006Z,89.03
2023-03-22T00:59:07.245Z,89.34
2023-03-22T01:01:34.115Z,88.46
2023-03-22T01:04:01.030Z,88.58
2023-03-22T01:06:27.813Z,90.62
2023-03-22T01:08:54.686Z,90.55
2023-03-22T01:11:23.898Z,90.84
2023-03-22T01:13:50.917Z,91.95
2023-03-22T01:16:18.363Z,91.34
2023-03-22T01:18:45.248Z,91.41
2023-03-22T01:21:12.090Z,92.21
2023-03-22T01:23:38.870Z,91.71
2023-03-22T01:26:06.398Z,92.59
2023-03-22T01:28:34.610Z,91.39
2023-03-22T01:31:02.773Z,91.03
2023-03-22T01:33:29.658Z,92.78
2023-03-22T01:35:56.537Z,92.26
2023-03-22T01:38:23.305Z,93.41
2023-03-22T01:40:50.070Z,93.48
2023-03-22T01:43:17.297Z,93.70
2023-03-22T01:45:47.507Z,92.98
2023-03-22T01:48:45.634Z,93.17
2023-03-22T01:51:16.278Z,94.63
2023-03-22T01:53:46.102Z,93.73
2023-03-22T01:56:13.588Z,94.43
2023-03-22T01:58:42.174Z,95.45
2023-03-22T02:01:11.361Z,95.50
2023-03-22T02:03:44.957Z,94.95
2023-03-22T02:06:11.951Z,95.56
2023-03-22T02:08:38.833Z,96.59
2023-03-22T02:11:05.878Z,95.60
2023-03-22T02:14:01.381Z,96.08
2023-03-22T02:16:43.533Z,95.43
2023-03-22T02:19:43.574Z,95.08
2023-03-22T02:22:31.404Z,94.83
2023-03-22T02:25:33.667Z,93.87
2023-03-22T02:28:14.335Z,95.26
2023-03-22T02:31:06.904Z,95.40
2023-03-22T02:34:05.668Z,95.34
2023-03-22T02:37:09.301Z,96.01
2023-03-22T02:39:44.597Z,96.15
2023-03-22T02:42:25.017Z,96.12
2023-03-22T02:45:01.813Z,96.15
2023-03-22T02:47:37.461Z,95.92
2023-03-22T02:50:10.644Z,97.13
2023-03-22T02:52:42.494Z,95.91
2023-03-22T02:55:16.446Z,97.03
2023-03-22T02:57:48.386Z,97.79
2023-03-22T03:00:17.904Z,98.04
2023-03-22T03:02:49.852Z,99.37
2023-03-22T03:05:19.129Z,100.00
2023-03-22T03:07:49.812Z,99.33
2023-03-22T03:10:20.571Z,98.61
2023-03-22T03:12:47.440Z,98.24
2023-03-22T03:15:16.534Z,97.51
2023-03-22T03:17:57.440Z,97.35
2023-03-22T03:20:30.444Z,97.86
2023-03-22T03:23:14.220Z,97.01
2023-03-22T03:25:49.482Z,97.33
2023-03-22T03:28:24.350Z,97.02
2023-03-22T03:30:57.322Z,97.12
2023-03-22T03:33:28.104Z,97.21
2023-03-22T03:36:01.436Z,97.71
2023-03-22T03:38:31.778Z,97.91
2023-03-22T03:41:03.730Z,96.68
2023-03-22T03:43:31.770Z,95.87
2023-03-22T03:45:58.651Z,96.94
2023-03-22T03:48:29.338Z,97.83
2023-03-22T03:50:57.763Z,99.11
2023-03-22T03:53:24.629Z,98.87
2023-03-22T03:55:51.406Z,97.92
2023-03-22T03:58:19.553Z,97.40
2023-03-22T04:00:46.976Z,97.20
2023-03-22T04:03:14.382Z,97.38
2023-03-22T04:05:41.287Z,97.30
2023-03-22T04:08:08.662Z,98.17
2023-03-22T04:10:35.468Z,98.47
2023-03-22T04:13:02.403Z,99.52
2023-03-22T04:15:30.638Z,99.82
2023-03-22T04:17:57.413Z,99.58
2023-03-22T04:20:24.408Z,100.00
2023-03-22T04:22:51.166Z,99.90
2023-03-22T04:25:18.362Z,99.97
2023-03-22T04:27:46.853Z,100.00
2023-03-22T04:30:15.192Z,100.00
2023-03-22T04:32:43.328Z,99.48
2023-03-22T04:35:10.072Z,100.00
2023-03-22T04:37:36.866Z,100.00
2023-03-22T04:40:04.021Z,100.00
2023-03-22T04:42:30.840Z,100.00
2023-03-22T04:44:57.637Z,100.00
2023-03-22T04:47:24.504Z,100.00
2023-03-22T04:49:52.732Z,100.00
2023-03-22T04:52:19.816Z,100.00
2023-03-22T04:54:46.625Z,99.40
2023-03-22T04:57:13.380Z,99.43
2023-03-22T04:59:40.411Z,99.37
2023-03-22T05:02:07.195Z,98.15
2023-03-22T05:04:34.117Z,97.56
2023-03-22T05:07:03.743Z,97.32
2023-03-22T05:09:30.626Z,96.77
2023-03-22T05:11:57.455Z,97.93
2023-03-22T05:14:28.429Z,98.26
2023-03-22T05:16:59.271Z,98.26
2023-03-22T05:22:50.365Z,99.38
2023-03-22T05:25:59.805Z,99.38
2023-03-22T05:29:04.931Z,99.93
2023-03-22T05:31:31.991Z,100.00
2023-03-22T05:34:07.451Z,100.00
2023-03-22T05:36:38.912Z,100.00
2023-03-22T05:39:23.009Z,100.00
2023-03-22T05:41:50.411Z,100.00
2023-03-22T05:44:38.916Z,100.00
2023-03-22T05:47:52.734Z,100.00
2023-03-22T05:50:22.136Z,100.00
2023-03-22T05:53:01.325Z,100.00
2023-03-22T05:59:10.227Z,100.00
2023-03-22T06:02:02.203Z,100.00
2023-03-22T06:04:40.816Z,100.00
2023-03-22T06:07:08.087Z,100.00
2023-03-22T06:09:35.067Z,100.00
2023-03-22T06:12:04.541Z,100.00
2023-03-22T06:14:31.652Z,100.00
2023-03-22T06:16:58.511Z,100.00
2023-03-22T06:19:25.384Z,100.00
2023-03-22T06:21:52.253Z,100.00
2023-03-22T06:24:19.288Z,100.00
2023-03-22T06:26:46.123Z,100.00
2023-03-22T06:29:14.584Z,100.00
2023-03-22T06:31:41.458Z,100.00
2023-03-22T06:34:08.220Z,100.00
2023-03-22T06:36:35.053Z,100.00
2023-03-22T06:39:01.819Z,100.00
2023-03-22T06:41:28.533Z,97.85
2023-03-22T06:43:55.310Z,97.80
2023-03-22T06:46:23.589Z,98.04
2023-03-22T06:48:50.653Z,95.90
2023-03-22T06:51:17.550Z,94.95
2023-03-22T06:53:44.586Z,95.36
2023-03-22T06:56:11.378Z,92.34
2023-03-22T06:58:38.221Z,89.29
2023-03-22T07:01:05.581Z,87.72
2023-03-22T07:03:33.815Z,85.29
2023-03-22T07:06:01.699Z,85.90
2023-03-22T07:08:28.651Z,85.25
2023-03-22T07:10:55.531Z,84.46
2023-03-22T07:13:22.384Z,82.47
2023-03-22T07:15:49.277Z,80.62
2023-03-22T07:18:16.047Z,80.43
2023-03-22T07:20:45.734Z,75.92
2023-03-22T07:23:12.556Z,74.92
2023-03-22T07:25:39.331Z,73.84
2023-03-22T07:28:06.140Z,71.50
2023-03-22T07:30:32.912Z,70.06
2023-03-22T07:33:00.706Z,69.94
2023-03-22T07:35:27.647Z,70.30
2023-03-22T07:37:55.951Z,70.40
2023-03-22T07:40:22.993Z,69.75
2023-03-22T07:42:50.426Z,69.01
2023-03-22T07:45:18.183Z,66.76
2023-03-22T07:47:45.719Z,66.24
2023-03-22T07:50:14.715Z,65.35
2023-03-22T07:52:42.801Z,62.50
2023-03-22T07:55:13.039Z,62.03
2023-03-22T07:57:40.124Z,62.68
2023-03-22T08:00:08.525Z,62.55
2023-03-22T08:02:35.291Z,62.85
2023-03-22T08:05:02.361Z,61.13
2023-03-22T08:07:29.262Z,60.31
2023-03-22T08:09:58.228Z,59.42
2023-03-22T08:12:26.386Z,58.63
2023-03-22T08:14:53.325Z,58.99
2023-03-22T08:17:21.063Z,58.84
2023-03-22T08:19:47.875Z,57.39
2023-03-22T08:22:14.713Z,58.19
2023-03-22T08:24:41.473Z,56.65
2023-03-22T08:27:08.488Z,56.41
2023-03-22T08:29:36.623Z,56.37
2023-03-22T08:32:03.673Z,56.02
2023-03-22T08:34:30.626Z,55.58
2023-03-22T08:36:57.436Z,54.42
2023-03-22T08:39:24.752Z,54.77
2023-03-22T08:41:52.116Z,54.85
2023-03-22T08:44:19.003Z,53.54
2023-03-22T08:46:47.122Z,53.74
2023-03-22T08:49:13.955Z,54.06
2023-03-22T08:51:40.848Z,53.79
2023-03-22T08:54:07.686Z,52.30
2023-03-22T08:56:34.623Z,52.26
2023-03-22T08:59:01.355Z,52.93
2023-03-22T09:01:28.308Z,51.65
2023-03-22T09:03:56.610Z,50.79
2023-03-22T09:06:23.443Z,50.35
2023-03-22T09:08:50.206Z,50.24
2023-03-22T09:11:18.080Z,48.24
2023-03-22T09:13:45.512Z,48.54
2023-03-22T09:16:12.421Z,47.91
2023-03-22T09:18:39.924Z,47.26
2023-03-22T09:21:09.209Z,47.18
2023-03-22T09:23:37.264Z,46.80
2023-03-22T09:26:06.028Z,45.37
2023-03-22T09:28:33.163Z,45.75
2023-03-22T09:31:00.611Z,45.27
2023-03-22T09:33:27.628Z,45.69
2023-03-22T09:35:55.268Z,44.60
2023-03-22T09:38:27.669Z,43.93
2023-03-22T09:40:58.577Z,45.72
2023-03-22T09:43:27.452Z,44.34
2023-03-22T09:45:54.832Z,45.11
2023-03-22T09:48:29.543Z,44.44
2023-03-22T09:50:57.246Z,45.69
2023-03-22T09:53:27.469Z,46.83
2023-03-22T09:56:00.244Z,47.07
2023-03-22T09:58:32.784Z,45.82
2023-03-22T10:01:03.126Z,46.75
2023-03-22T10:03:59.063Z,45.36
2023-03-22T10:06:28.989Z,45.13
2023-03-22T10:09:08.914Z,46.43
2023-03-22T10:11:45.461Z,47.60
2023-03-22T10:14:27.749Z,47.26
2023-03-22T10:16:57.352Z,45.39
2023-03-22T10:19:30.898Z,47.22
2023-03-22T10:22:00.965Z,45.52
2023-03-22T10:24:33.001Z,47.24
2023-03-22T10:27:00.128Z,45.21
2023-03-22T10:29:32.586Z,44.27
2023-03-22T10:32:13.080Z,44.65
2023-03-22T10:34:39.952Z,44.26
2023-03-22T10:37:10.425Z,45.12
2023-03-22T10:39:41.855Z,45.08
2023-03-22T10:42:13.400Z,44.28
2023-03-22T10:44:46.198Z,42.70
2023-03-22T10:47:14.284Z,42.83
2023-03-22T10:49:45.672Z,42.30
2023-03-22T10:52:38.201Z,43.73
2023-03-22T10:55:11.729Z,41.33
2023-03-22T10:57:38.816Z,40.45
2023-03-22T11:00:07.522Z,40.88
2023-03-22T11:02:34.979Z,40.37
2023-03-22T11:05:03.682Z,40.04
2023-03-22T11:07:33.920Z,40.61
2023-03-22T11:10:21.223Z,40.07
2023-03-22T11:12:50.754Z,37.92
2023-03-22T11:15:27.260Z,40.77
2023-03-22T11:17:59.284Z,40.14
2023-03-22T11:20:26.436Z,39.62
2023-03-22T11:22:53.524Z,39.04
2023-03-22T11:25:28.682Z,41.32
2023-03-22T11:27:57.995Z,39.22
2023-03-22T11:30:27.168Z,39.87
2023-03-22T11:33:01.826Z,36.75
2023-03-22T11:35:30.798Z,38.03
2023-03-22T11:37:58.229Z,37.33
2023-03-22T11:40:28.297Z,39.37
2023-03-22T11:42:58.616Z,38.28
2023-03-22T11:45:28.348Z,40.09
2023-03-22T11:48:01.383Z,40.73
2023-03-22T11:50:30.995Z,39.57
2023-03-22T11:52:57.988Z,38.00
2023-03-22T11:55:26.236Z,39.46
2023-03-22T11:57:55.409Z,38.74
2023-03-22T12:00:26.486Z,39.08
2023-03-22T12:02:58.111Z,40.66
2023-03-22T12:05:26.753Z,40.01
2023-03-22T12:07:58.948Z,40.37
2023-03-22T12:10:31.038Z,39.08
2023-03-22T12:13:01.755Z,38.61
2023-03-22T12:15:33.065Z,39.29
2023-03-22T12:18:07.676Z,36.94
2023-03-22T12:20:42.376Z,37.25
2023-03-22T12:23:15.188Z,38.71
2023-03-22T12:25:49.973Z,38.47
2023-03-22T12:28:20.160Z,37.57
2023-03-22T12:30:51.806Z,37.73
2023-03-22T12:33:22.566Z,36.89
2023-03-22T12:35:52.912Z,36.81
2023-03-22T12:38:26.622Z,38.77
2023-03-22T12:40:57.815Z,38.13
2023-03-22T12:43:38.793Z,36.75
2023-03-22T12:46:10.114Z,37.20
2023-03-22T12:48:44.038Z,38.86
2023-03-22T12:51:14.492Z,38.38
2023-03-22T12:53:45.129Z,37.92
2023-03-22T12:56:16.621Z,39.15
2023-03-22T12:58:48.391Z,38.86
2023-03-22T13:01:24.847Z,37.98
2023-03-22T13:03:53.321Z,37.82
2023-03-22T13:06:32.533Z,37.74
2023-03-22T13:09:15.092Z,36.38
2023-03-22T13:11:44.805Z,36.72
2023-03-22T13:14:34.074Z,38.11
2023-03-22T13:17:00.979Z,39.04
2023-03-22T13:19:33.240Z,38.20
2023-03-22T13:22:20.979Z,37.83
2023-03-22T13:24:59.408Z,38.07
2023-03-22T13:27:37.530Z,38.89
2023-03-22T13:30:06.213Z,40.07
2023-03-22T13:32:33.552Z,38.20
2023-03-22T13:35:00.730Z,39.18
2023-03-22T13:37:32.254Z,36.81
2023-03-22T13:39:59.193Z,37.86
2023-03-22T13:42:35.691Z,37.88
2023-03-22T13:45:08.835Z,36.88
2023-03-22T13:47:43.143Z,37.38
2023-03-22T13:50:14.431Z,36.30
2023-03-22T13:52:44.555Z,34.94
2023-03-22T13:55:31.880Z,35.77
2023-03-22T13:57:59.604Z,36.57
2023-03-22T14:00:48.402Z,36.19
2023-03-22T14:03:23.321Z,37.70
2023-03-22T14:06:04.102Z,37.66
2023-03-22T14:08:34.532Z,36.78
2023-03-22T14:11:10.132Z,37.01
2023-03-22T14:13:43.471Z,36.83
2023-03-22T14:16:18.116Z,36.41
2023-03-22T14:18:48.630Z,36.69
2023-03-22T14:21:21.539Z,36.47
